Weather observations for the past three days for
Washington Island
Imperial (Metric)
Date Time (cdt) Wind (mph) Vis. (mi.) Weather Sky Cond. Temperature (ºF) Relative Humidity Wind Chill (°F) Heat Index (°F) Pressure Precipitation (in)
Air Dwpt 6 hour altimeter (in) sea level (mb) 1 hr 3 hr 6 hr
Max. Min.
05 04:55 W 3 10.00 Partly Cloudy SCT070 41.2 25.7 54% 29.61 0.0
05 04:35 NW 3 10.00 Overcast OVC070 41.4 27.1 57% 29.6 0.0
05 04:15 NW 5 10.00 Overcast OVC070 42.6 26.4 53% 40 29.6 0.0
05 03:55 NW 3 10.00 Overcast OVC060 42.8 27.3 54% 29.59 0.0
05 03:35 Calm 10.00 Overcast OVC060 43.3 25.9 50% 29.58 0.0
05 03:15 NW 3 10.00 Overcast OVC060 44.2 23 43% 29.58 0.0
05 02:55 Calm 10.00 Overcast OVC060 44.1 23.9 45% 29.57 0.0
05 02:35 NW 5 10.00 Overcast OVC060 44.8 22.8 42% 43 29.57 0.0
05 02:15 NW 3 10.00 Overcast OVC060 45 22.8 42% 29.58 0.0
05 01:55 NW 6 10.00 Overcast OVC060 45.1 22.6 41% 43 29.58 0.0
05 01:35 NW 5 10.00 Overcast BKN060 OVC080 45 22.8 42% 43 29.57 0.0
05 01:20 NW 6 10.00 Overcast OVC080 45.1 23.2 42% 43 29.57 0.0
05 00:55 NW 10 G 17 10.00 Overcast OVC070 46.4 21.6 54 41.2 37% 42 29.57 0.0
05 00:35 NW 8 10.00 Overcast OVC070 45.9 25.5 45% 42 29.57 0.0
05 00:15 NW 12 10.00 Overcast BKN070 OVC085 46.9 24.3 41% 42 29.56 0.0
04 23:55 N 10 10.00 Overcast SCT070 OVC085 47.1 24.4 41% 43 29.55 0.0
04 23:35 NW 12 10.00 Overcast OVC085 46.6 26.2 45% 42 29.54 0.0
04 23:15 N 6 10.00 Mostly Cloudy BKN085 45.1 30.9 58% 43 29.53 0.0
04 22:55 N 5 10.00 Partly Cloudy SCT085 41.9 36 80% 40 29.52 0.0
04 22:35 Calm 10.00 Mostly Cloudy SCT070 BKN085 43.9 35.4 72% 29.51 0.0
04 22:15 Calm 10.00 Overcast BKN070 OVC085 45.7 32.2 59% 29.5 0.0
04 21:55 E 7 10.00 Mostly Cloudy BKN060 BKN085 45.7 32.5 60% 43 29.49 0.0
04 21:35 NE 3 10.00 Partly Cloudy SCT060 46.4 32.5 59% 29.47 0.0
04 21:15 NE 6 10.00 Partly Cloudy SCT060 46.8 32.7 58% 44 29.46 0.0
04 20:55 E 9 10.00 Fair CLR 47.5 33.4 58% 44 29.45 0.0
04 20:35 NE 7 10.00 Fair CLR 47.7 34 59% 45 29.43 0.0
04 20:15 NE 10 10.00 Fair CLR 48.4 34 58% 44 29.41 0.0
04 19:55 NE 9 G 18 10.00 Fair CLR 48.9 34.5 58% 45 29.39 0.0
04 19:15 NE 12 G 18 10.00 Partly Cloudy SCT120 53.1 35.2 51% 29.36 0.0
04 18:50 NE 10 G 17 10.00 Mostly Cloudy BKN110 54.3 36.3 69.1 52.3 51% 29.36 0.0
04 18:35 NE 13 G 20 10.00 Overcast OVC110 55.6 36.9 50% 29.36 0.0
04 18:15 NE 8 10.00 Overcast OVC100 55.6 37.4 51% 29.35 0.0
04 17:55 NE 10 G 16 10.00 Light Rain SCT055 SCT080 OVC100 54.5 39 56% 29.34 0.0
04 17:35 NE 10 10.00 Light Rain SCT065 BKN090 OVC110 53.2 38.3 57% 29.34 0.0
04 17:10 N 9 10.00 Overcast OVC110 54.1 37.2 53% 29.32 0.0
04 16:55 N 8 G 18 10.00 Overcast OVC110 57.2 31.8 38% 29.31 0.0
04 16:35 W 12 G 18 10.00 Overcast OVC110 61.5 28.6 29% 29.3 0.0
04 16:15 W 13 G 22 10.00 Mostly Cloudy BKN120 61.7 29.3 29% 29.29 0.0
04 15:55 SW 14 G 20 10.00 Fair CLR 60.6 31.6 34% 29.29 0.0
04 15:35 W 14 G 21 10.00 Fair CLR 63.7 32.2 31% 29.29 0.0
04 15:15 SW 15 G 23 10.00 Fair CLR 63.7 34 33% 29.29 0.0
04 14:55 SW 16 G 23 10.00 Fair CLR 62.2 35.1 36% 29.29 0.0
04 14:35 SW 15 G 21 10.00 Partly Cloudy SCT095 69.1 33.6 27% 29.29 0.0
04 14:15 SW 16 G 26 10.00 Partly Cloudy SCT095 SCT120 64.9 32.9 30% 29.29 0.0
04 13:55 SW 17 G 28 10.00 Mostly Cloudy BKN095 BKN120 66.9 33.1 29% 29.29 0.0
04 13:35 SW 15 G 24 10.00 Mostly Cloudy BKN095 BKN110 64.8 34.2 32% 29.28 0.0
04 13:15 SW 16 G 24 10.00 Mostly Cloudy SCT085 BKN120 65.1 32.7 30% 29.29 0.0
04 12:55 S 13 G 17 10.00 Mostly Cloudy SCT085 BKN110 62.2 35.4 62.2 47.1 37% 29.28 0.0
04 12:35 S 9 10.00 Partly Cloudy SCT110 61 36.1 40% 29.29 0.0
04 12:15 S 9 10.00 Partly Cloudy SCT120 57.4 36 45% 29.29 0.0
04 11:55 S 9 10.00 Partly Cloudy SCT110 54.5 36.5 51% 29.3 0.0
04 11:35 S 14 G 17 10.00 Partly Cloudy SCT100 53.2 36.5 53% 29.3 0.0
04 11:15 S 14 G 23 10.00 Partly Cloudy SCT100 51.8 36.1 55% 29.3 0.0
04 10:55 S 14 G 21 10.00 Mostly Cloudy BKN100 52.5 35.6 53% 29.31 0.0
04 10:35 S 13 G 20 10.00 Mostly Cloudy BKN110 53.6 37 54% 29.32 0.0
04 10:15 S 13 G 17 10.00 Partly Cloudy SCT110 51.1 37.4 60% 29.34 0.0
04 09:55 S 13 G 20 10.00 Fair CLR 50 37.2 62% 46 29.34 0.0
04 09:35 S 12 10.00 Fair CLR 50.2 37.8 63% 29.35 0.0
04 09:15 S 12 G 20 10.00 Fair CLR 49.6 37.8 64% 46 29.37 0.0
04 08:55 S 10 10.00 Fair CLR 50.5 38.7 64% 29.37 0.0
04 08:35 S 9 10.00 Fair CLR 49.8 39 67% 47 29.39 0.0
04 08:15 S 5 10.00 Fair CLR 49.1 41 74% 48 29.4 0.0
04 07:55 S 8 10.00 Fair CLR 49.1 40.3 72% 46 29.4 0.0
04 07:35 S 8 10.00 Fair CLR 48.2 41.4 77% 45 29.42 0.0
04 07:15 S 8 10.00 Fair CLR 47.5 42.6 83% 44 29.42 0.0
04 06:50 S 9 10.00 Fair CLR 47.3 42.3 48.6 34 83% 43 29.43 0.0
04 06:35 S 8 10.00 Fair CLR 48 41.4 78% 45 29.44 0.0
04 06:15 S 7 10.00 Fair CLR 48.6 40.8 75% 46 29.44 0.0
04 05:55 S 8 0.00 NULL NULL 47.7 40.6 77% 44 29.45 0.0
04 05:35 S 6 10.00 Fair CLR 46 42.3 87% 44 29.46 0.0
04 05:15 S 7 10.00 Fair CLR 45.7 41.9 87% 43 29.47 0.0
04 04:55 S 7 10.00 Fair CLR 45.1 41.9 88% 42 29.48 0.0
04 04:40 S 12 G 16 10.00 Fair CLR 44.8 41.5 88% 40 29.49 0.0
04 04:15 S 6 10.00 Fair CLR 43.2 39.9 88% 40 29.5 0.0
04 03:55 S 6 10.00 Fair CLR 41.7 38.7 89% 38 29.5 0.0
04 03:35 S 6 10.00 Fair CLR 43.7 40.3 88% 41 29.5 0.0
04 03:15 S 3 10.00 Fair CLR 42.1 39 89% 29.51 0.0
04 02:55 Calm 10.00 Fair CLR 39.7 36.5 88% 29.52 0.0
04 02:35 Calm 10.00 Fair CLR 37 34 89% 29.53 0.0
04 02:15 Calm 10.00 Fair CLR 34.9 32.2 90% 29.54 0.0
04 01:55 Calm 10.00 Fair CLR 34.7 32 90% 29.55 0.0
04 01:30 Calm 7.00 Fair CLR 34.7 32 90% 29.55 0.0
04 01:10 Calm 7.00 Fair CLR 35.2 32.2 89% 29.56 0.0
04 00:55 Calm 7.00 Fair CLR 34.9 32 45.9 34.3 89% 29.57 0.0
04 00:40 Calm 7.00 Fair CLR 34.5 31.8 90% 29.58 0.0
03 23:55 Calm 7.00 Fair CLR 36 32.9 89% 29.58 0.0
03 23:35 Calm 7.00 Fair CLR 35.6 32.5 89% 29.58 0.0
03 23:15 Calm 7.00 Fair CLR 36.3 33.1 88% 29.59 0.0
03 22:55 Calm 10.00 Fair CLR 37.6 34.7 89% 29.6 0.0
03 22:35 Calm 10.00 Fair CLR 38.7 35.6 89% 29.6 0.0
03 22:15 Calm 7.00 Fair CLR 37.8 34.7 89% 29.6 0.0
03 21:55 Calm 7.00 Fair CLR 38.3 35.2 89% 29.61 0.0
03 21:35 Calm 10.00 Fair CLR 39.2 36 88% 29.6 0.0
03 21:15 Calm 10.00 Fair CLR 39.6 36.5 89% 29.61 0.0
03 20:55 Calm 10.00 Fair CLR 41.7 38.8 90% 29.61 0.0
03 20:35 Calm 10.00 Fair CLR 43 39.7 88% 29.6 0.0
03 20:15 Calm 10.00 Partly Cloudy SCT100 44.1 41 89% 29.59 0.0
03 19:55 S 7 10.00 Mostly Cloudy SCT085 BKN100 45.1 41.9 88% 42 29.58 0.0
03 19:30 S 6 10.00 Mostly Cloudy SCT095 BKN120 43.7 40.3 88% 41 29.55 0.0
03 19:15 S 9 G 16 10.00 Partly Cloudy SCT095 SCT120 43.7 40.6 89% 39 29.54 0.0
03 18:55 S 10 G 16 10.00 Partly Cloudy SCT120 45.9 41.7 56.1 44.6 86% 41 29.54 0.0
03 18:35 S 12 G 22 10.00 Partly Cloudy SCT090 SCT120 44.6 40.8 87% 39 29.56 0.0
03 18:15 S 14 G 20 10.00 Partly Cloudy SCT090 45 40.5 84% 39 29.56 0.0
03 17:50 S 9 G 21 10.00 Partly Cloudy SCT080 SCT090 48.2 41.4 77% 45 29.56 0.0
03 17:35 S 8 10.00 Overcast BKN080 OVC090 49.6 42.6 77% 47 29.56 0.0
03 17:15 S 5 10.00 Thunderstorm OVC090 50.5 46.2 85% 29.56 0.0
03 16:55 SE 5 10.00 Thunderstorm in Vicinity SCT060 BKN070 OVC090 50.2 46.8 88% 29.58 0.0
03 16:35 NE 6 G 20 10.00 Thunderstorm Rain BKN060 OVC070 46.4 43.2 89% 44 29.6 0.0
03 16:15 S 13 G 24 10.00 Thunderstorm in Vicinity SCT060 BKN080 OVC090 46.6 39.9 78% 41 29.54 0.0
03 15:55 S 16 G 21 10.00 Mostly Cloudy BKN100 BKN110 49.1 39.2 69% 44 29.54 0.0
03 15:35 S 14 G 22 10.00 Fair CLR 51.8 38.1 60% 29.55 0.0
03 15:15 S 10 10.00 Fair CLR 53.6 38.7 57% 29.56 0.0
03 14:55 S 7 10.00 Mostly Cloudy SCT060 SCT070 BKN095 54 39 57% 29.58 0.0
03 14:35 S 9 10.00 Partly Cloudy SCT060 SCT070 SCT090 52 37.8 59% 29.6 0.0
03 14:10 S 12 10.00 Partly Cloudy SCT120 54.9 37 51% 29.61 0.0
03 13:55 S 8 10.00 Partly Cloudy SCT120 55.9 37.4 50% 29.62 0.0
03 13:35 S 8 10.00 Mostly Cloudy SCT090 BKN120 52.9 36.7 54% 29.62 0.0
03 13:15 S 8 10.00 Partly Cloudy SCT080 SCT120 54.7 36.5 50% 29.64 0.0
03 12:55 S 8 10.00 Fair CLR 54.7 35.8 59 46.4 49% 29.64 0.0
03 12:35 S 9 10.00 Partly Cloudy SCT095 56.8 35.1 44% 29.65 0.0
03 12:15 SW 6 10.00 Mostly Cloudy BKN095 BKN120 55.2 34.3 45% 29.65 0.0
03 11:55 SW 17 G 21 10.00 Mostly Cloudy SCT095 BKN120 59 31.8 36% 29.66 0.0
03 11:35 SW 13 G 21 10.00 Mostly Cloudy SCT095 BKN120 57.6 30.6 36% 29.67 0.0
03 11:15 SW 10 G 21 10.00 Partly Cloudy SCT120 57.7 30.7 36% 29.67 0.0
03 10:55 SW 14 G 18 10.00 Partly Cloudy SCT080 57 29.1 35% 29.68 0.0
03 10:35 SW 12 G 17 10.00 Overcast OVC080 54.5 31.1 41% 29.69 0.0
03 10:15 SW 8 10.00 Overcast BKN085 OVC090 51.4 31.6 47% 29.69 0.0
03 09:55 SW 12 10.00 Overcast SCT060 OVC095 51.1 32.2 49% 29.7 0.0
03 09:35 SW 12 G 18 10.00 Overcast BKN065 OVC070 50.4 34.2 54% 29.71 0.0
03 09:15 SW 10 G 18 10.00 Overcast BKN065 BKN075 OVC080 47.7 38.8 72% 44 29.71 0.0
03 08:55 SW 12 G 17 10.00 Mostly Cloudy SCT050 SCT060 BKN085 48.2 38.5 69% 44 29.72 0.0
03 08:35 SW 15 G 22 10.00 Mostly Cloudy BKN060 47.7 39.4 73% 42 29.72 0.0
03 08:15 SW 14 G 20 10.00 Light Rain OVC060 48.2 37.9 68% 43 29.72 0.0
03 07:55 SW 13 10.00 Overcast BKN060 OVC070 47.3 36.5 66% 42 29.72 0.0
03 07:30 SW 9 10.00 Overcast BKN060 OVC075 47.3 37.4 69% 43 29.71 0.0
03 07:15 SW 12 10.00 Overcast OVC060 46.8 37 69% 42 29.71 0.0
03 06:55 SW 13 G 17 10.00 Overcast OVC060 46.4 36.7 47.7 37 69% 41 29.72 0.0
03 06:35 SW 7 10.00 Light Rain OVC060 46.4 36.1 68% 43 29.72 0.0
03 06:15 SW 8 10.00 Overcast OVC060 46.8 35.2 64% 43 29.72 0.0
03 05:55 SW 8 10.00 Light Drizzle BKN060 OVC070 46.9 34.5 62% 44 29.73 0.0
03 05:35 S 5 10.00 Overcast BKN060 OVC070 46.4 35.1 65% 45 29.73 0.0
03 05:15 SW 8 10.00 Light Rain OVC060 47.5 33.8 59% 44 29.73 0.0
03 04:55 S 6 10.00 Light Rain BKN060 OVC070 45 38.1 77% 42 29.74 0.0
03 04:35 SW 3 10.00 Overcast SCT060 OVC070 45 36.7 73% 29.74 0.0
03 04:15 W 5 10.00 Overcast OVC070 44.6 37.8 77% 43 29.75 0.0
03 03:55 SW 9 10.00 Overcast OVC070 45 37.4 75% 41 29.76 0.0
03 03:35 SW 6 10.00 Light Rain BKN070 OVC090 43.7 39 84% 41 29.77 0.0
03 03:15 SW 7 10.00 Mostly Cloudy SCT070 BKN100 44.2 35.1 70% 41 29.77 0.0
03 02:55 SW 8 10.00 Partly Cloudy SCT100 42.6 32.5 68% 38 29.77 0.0
03 02:35 SW 6 10.00 Fair CLR 42.1 32 68% 39 29.77 0.0
03 02:15 SW 5 10.00 Partly Cloudy SCT120 41.4 30.9 67% 39 29.78 0.0
03 01:55 SW 3 10.00 Fair CLR 39 32.7 78% 29.79 0.0
03 01:35 SW 3 10.00 Fair CLR 38.1 34.5 87% 29.8 0.0
03 01:10 Calm 10.00 Fair CLR 38.8 33.6 82% 29.81 0.0
03 00:55 Calm 10.00 Partly Cloudy SCT110 39.9 32.4 41.7 39.9 74% 29.81 0.0
03 00:35 S 6 10.00 Partly Cloudy SCT110 40.5 32 72% 37 29.81 0.0
03 00:15 S 6 10.00 Partly Cloudy SCT110 40.5 32 72% 37 29.82 0.0
02 23:55 S 6 10.00 Partly Cloudy SCT100 41 32 70% 38 29.83 0.0
02 23:35 S 8 10.00 Partly Cloudy SCT100 41.4 33.3 73% 37 29.84 0.0
02 23:15 S 9 10.00 Mostly Cloudy BKN100 41 33.6 75% 36 29.85 0.0
02 22:55 S 8 10.00 Partly Cloudy SCT110 40.5 32 72% 36 29.86 0.0
02 22:35 S 10 10.00 Fair CLR 40.6 30.6 67% 35 29.87 0.0
02 22:15 S 10 G 17 10.00 Fair CLR 40.3 30 67% 34 29.87 0.0
02 21:55 S 14 G 20 10.00 Fair CLR 40.3 28.8 64% 33 29.88 0.0
02 21:35 S 14 G 20 10.00 Fair CLR 40.5 28.2 62% 33 29.89 0.0
02 21:15 S 13 G 20 10.00 Fair CLR 41 28.2 60% 34 29.89 0.0
02 20:55 S 14 G 22 10.00 Fair CLR 41 27.7 59% 34 29.89 0.0
02 20:35 S 10 G 20 10.00 Fair CLR 40.3 28.2 62% 34 29.89 0.0
02 20:15 S 14 G 22 10.00 Fair CLR 40.3 26.8 59% 33 29.89 0.0
02 19:55 S 13 G 21 10.00 Fair CLR 40.6 25 54% 34 29.9 0.0
02 19:35 S 13 G 21 10.00 Fair CLR 40.6 25.3 55% 34 29.9 0.0
02 19:15 S 12 G 20 10.00 Fair CLR 41.2 24.6 52% 35 29.9 0.0
02 18:55 S 13 G 22 10.00 Fair CLR 41.5 25.3 46.6 41.4 53% 35 29.91 0.0
02 18:35 S 16 G 24 10.00 Fair CLR 42.3 25.2 51% 35 29.91 0.0
02 18:15 S 12 G 21 10.00 Fair CLR 42.3 25 50% 36 29.92 0.0
02 17:55 S 13 G 22 10.00 Fair CLR 42.3 25 50% 36 29.93 0.0
02 17:35 S 12 G 21 10.00 Fair CLR 43.2 25.3 49% 38 29.93 0.0
02 17:15 S 9 G 18 10.00 Fair CLR 43.9 24.6 47% 39 29.94 0.0
02 16:55 S 16 G 23 10.00 Fair CLR 43.9 22.5 43% 37 29.94 0.0
02 16:35 S 17 G 21 10.00 Fair CLR 44.4 23.2 43% 37 29.95 0.0
02 16:15 S 12 G 21 10.00 Partly Cloudy SCT090 44.8 23.4 43% 40 29.95 0.0
02 15:55 S 13 G 20 10.00 Partly Cloudy SCT090 46.6 24.1 41% 41 29.96 0.0
02 15:35 S 9 G 18 10.00 Fair CLR 44.8 21.6 40% 40 29.96 0.0
02 15:15 S 15 G 22 10.00 Fair CLR 44.8 21.7 40% 39 29.97 0.0
02 14:35 S 10 G 18 10.00 Fair CLR 45.9 22.5 40% 41 29.99 0.0
02 14:15 S 12 10.00 Fair CLR 45.3 22.1 40% 40 30 0.0
02 13:55 S 10 G 16 10.00 Fair CLR 45.7 20.5 37% 41 30 0.0
02 13:35 S 8 G 16 10.00 Fair CLR 46 20.3 36% 42 30.01 0.0
02 13:15 S 7 10.00 Fair CLR 45.9 20.3 36% 43 30.01 0.0
02 12:55 S 12 10.00 Fair CLR 46.4 21.9 46.8 30.9 38% 42 30.02 0.0
02 12:35 S 8 10.00 Fair CLR 46.6 20.1 35% 43 30.02 0.0
02 12:15 S 9 10.00 Fair CLR 46 18.1 33% 42 30.03 0.0
02 11:55 SW 6 10.00 Fair CLR 46.2 16.3 30% 44 30.03 0.0
02 11:35 W 6 10.00 Fair CLR 45 16.5 32% 42 30.04 0.0
02 11:15 W 8 10.00 Fair CLR 43.7 13.1 29% 40 30.05 0.0
02 10:55 SW 7 10.00 Fair CLR 43.3 17.6 35% 40 30.05 0.0
02 10:35 W 9 10.00 Fair CLR 42.6 20.5 41% 38 30.06 0.0
02 10:15 SW 9 10.00 Fair CLR 41.9 23 47% 37 30.06 0.0
02 09:55 SW 8 10.00 Fair CLR 41.4 24.1 50% 37 30.06 0.0
02 09:35 W 8 10.00 Fair CLR 41 22.3 47% 36 30.06 0.0
02 09:15 W 7 10.00 Fair CLR 41.7 20.8 43% 38 30.07 0.0
02 08:55 W 6 10.00 Fair CLR 40.5 22.5 49% 37 30.07 0.0
02 08:35 W 6 10.00 Fair CLR 39.9 20.1 45% 36 30.07 0.0
02 08:15 W 6 10.00 Fair CLR 39.2 20.3 47% 36 30.07 0.0
02 07:55 W 6 10.00 Fair CLR 39 19.2 45% 35 30.07 0.0
02 07:35 W 6 10.00 Fair CLR 38.3 22.8 54% 34 30.08 0.0
02 07:15 W 5 10.00 Fair CLR 35.4 30.7 83% 32 30.08 0.0
02 06:55 Calm 10.00 Fair CLR 30.6 27.5 30.6 23.7 88% 30.08 0.0
02 06:35 Calm 3.00 Fog/Mist CLR 27 24.1 89% 30.08 0.0
02 06:15 Calm 10.00 Fair CLR 25.5 22.6 89% 30.07 0.0
02 05:55 Calm 10.00 Fair CLR 24.4 21.6 89% 30.07 0.0
02 05:35 Calm 10.00 Fair CLR 24.4 21.4 88% 30.07 0.0
Date Time (cdt) Wind (mph) Vis. (mi.) Weather Sky Cond. Air Dwpt Max. Min. Relative Humidity Wind Chill (°F) Heat Index (°F) altimeter (in) sea level (mb) 1 hr 3 hr 6 hr
6 hour
Temperature (ºF) Pressure Precipitation (in)